createdAt,value
2023-08-16T00:01:49.052Z,97684.00
2023-08-16T00:04:16.438Z,97690.34
2023-08-16T00:06:44.260Z,97686.66
2023-08-16T00:09:11.600Z,97690.72
2023-08-16T00:11:38.905Z,97696.56
2023-08-16T00:14:06.140Z,97689.25
2023-08-16T00:16:34.028Z,97689.59
2023-08-16T00:19:02.063Z,97693.31
2023-08-16T00:21:29.520Z,97682.56
2023-08-16T00:23:56.814Z,97681.44
2023-08-16T00:26:24.179Z,97683.13
2023-08-16T00:28:52.337Z,97674.81
2023-08-16T00:31:21.231Z,97672.00
2023-08-16T00:33:48.557Z,97665.84
2023-08-16T00:36:16.126Z,97662.03
2023-08-16T00:38:46.490Z,97666.19
2023-08-16T00:41:14.800Z,97663.28
2023-08-16T00:43:42.230Z,97655.19
2023-08-16T00:46:15.903Z,97666.19
2023-08-16T00:48:44.722Z,97664.16
2023-08-16T00:51:12.982Z,97655.97
2023-08-16T00:53:42.477Z,97657.00
2023-08-16T00:56:16.126Z,97643.88
2023-08-16T00:58:44.216Z,97639.91
2023-08-16T01:01:12.368Z,97639.66
2023-08-16T01:03:41.617Z,97639.53
2023-08-16T01:06:09.379Z,97648.06
2023-08-16T01:08:37.059Z,97643.00
2023-08-16T01:11:45.263Z,97644.66
2023-08-16T01:14:30.370Z,97650.22
2023-08-16T01:16:58.830Z,97644.25
2023-08-16T01:19:32.197Z,97642.00
2023-08-16T01:22:57.099Z,97643.91
2023-08-16T01:25:36.778Z,97640.31
2023-08-16T01:28:04.881Z,97636.38
2023-08-16T01:30:32.827Z,97638.78
2023-08-16T01:33:11.375Z,97651.78
2023-08-16T01:35:40.588Z,97652.94
2023-08-16T01:38:11.831Z,97659.66
2023-08-16T01:41:38.928Z,97661.31
2023-08-16T01:44:09.136Z,97666.22
2023-08-16T01:46:39.141Z,97666.81
2023-08-16T01:49:08.290Z,97667.59
2023-08-16T01:51:35.940Z,97666.19
2023-08-16T01:54:03.204Z,97668.53
2023-08-16T01:56:30.559Z,97667.53
2023-08-16T01:58:57.803Z,97665.59
2023-08-16T02:01:25.182Z,97658.31
2023-08-16T02:03:55.084Z,97670.84
2023-08-16T02:06:23.937Z,97666.47
2023-08-16T02:08:52.201Z,97671.38
2023-08-16T02:11:21.109Z,97661.31
2023-08-16T02:13:48.487Z,97661.84
2023-08-16T02:16:15.859Z,97670.25
2023-08-16T02:18:44.232Z,97667.78
2023-08-16T02:21:13.051Z,97672.34
2023-08-16T02:23:40.331Z,97668.00
2023-08-16T02:26:07.890Z,97670.91
2023-08-16T02:28:35.083Z,97665.31
2023-08-16T02:31:06.677Z,97671.31
2023-08-16T02:33:37.304Z,97667.13
2023-08-16T02:36:05.455Z,97662.94
2023-08-16T02:38:32.799Z,97671.41
2023-08-16T02:41:01.960Z,97660.66
2023-08-16T02:43:29.428Z,97661.78
2023-08-16T02:45:56.713Z,97665.72
2023-08-16T02:48:23.977Z,97669.06
2023-08-16T02:50:51.231Z,97673.31
2023-08-16T02:53:18.607Z,97674.09
2023-08-16T02:55:45.826Z,97672.06
2023-08-16T02:58:13.934Z,97675.22
2023-08-16T03:00:41.275Z,97679.81
2023-08-16T03:03:08.634Z,97679.09
2023-08-16T03:05:35.841Z,97677.84
2023-08-16T03:08:03.234Z,97674.44
2023-08-16T03:10:30.471Z,97677.19
2023-08-16T03:12:57.812Z,97676.28
2023-08-16T03:15:25.079Z,97676.19
2023-08-16T03:17:52.601Z,97660.06
2023-08-16T03:20:19.857Z,97671.59
2023-08-16T03:22:47.069Z,97671.13
2023-08-16T03:25:18.323Z,97676.06
2023-08-16T03:27:45.637Z,97683.97
2023-08-16T03:30:13.235Z,97676.88
2023-08-16T03:32:42.941Z,97670.75
2023-08-16T03:35:10.485Z,97668.25
2023-08-16T03:37:38.327Z,97670.69
2023-08-16T03:40:07.644Z,97672.06
2023-08-16T03:42:35.124Z,97675.19
2023-08-16T03:45:02.570Z,97680.72
2023-08-16T03:47:31.359Z,97683.59
2023-08-16T03:50:00.891Z,97684.72
2023-08-16T03:52:28.404Z,97679.22
2023-08-16T03:54:55.626Z,97678.13
2023-08-16T03:57:24.293Z,97672.44
2023-08-16T03:59:53.868Z,97680.59
2023-08-16T04:02:23.028Z,97678.06
2023-08-16T04:04:54.885Z,97680.25
2023-08-16T04:07:23.134Z,97678.00
2023-08-16T04:09:50.596Z,97688.03
2023-08-16T04:12:18.099Z,97692.56
2023-08-16T04:14:45.304Z,97701.03
2023-08-16T04:17:12.556Z,97701.38
2023-08-16T04:19:40.080Z,97700.97
2023-08-16T04:22:07.296Z,97703.84
2023-08-16T04:24:35.525Z,97703.03
2023-08-16T04:27:02.941Z,97702.19
2023-08-16T04:29:30.399Z,97714.38
2023-08-16T04:31:58.272Z,97709.06
2023-08-16T04:34:25.587Z,97710.78
2023-08-16T04:36:52.979Z,97714.75
2023-08-16T04:39:21.850Z,97715.41
2023-08-16T04:41:49.638Z,97721.00
2023-08-16T04:44:18.022Z,97720.41
2023-08-16T04:46:45.288Z,97724.00
2023-08-16T04:49:12.691Z,97721.78
2023-08-16T04:51:40.173Z,97718.22
2023-08-16T04:54:08.889Z,97723.72
2023-08-16T04:56:36.201Z,97728.00
2023-08-16T04:59:03.624Z,97726.75
2023-08-16T05:01:30.997Z,97726.81
2023-08-16T05:04:01.163Z,97730.50
2023-08-16T05:06:28.740Z,97727.97
2023-08-16T05:08:56.193Z,97724.75
2023-08-16T05:11:23.748Z,97726.44
2023-08-16T05:13:51.611Z,97720.53
2023-08-16T05:16:19.900Z,97719.69
2023-08-16T05:18:48.428Z,97721.31
2023-08-16T05:21:16.808Z,97719.09
2023-08-16T05:23:44.238Z,97724.19
2023-08-16T05:26:11.738Z,97727.81
2023-08-16T05:28:38.962Z,97727.72
2023-08-16T05:31:13.312Z,97736.44
2023-08-16T05:33:41.097Z,97729.88
2023-08-16T05:36:09.174Z,97732.59
2023-08-16T05:38:36.618Z,97730.06
2023-08-16T05:41:07.048Z,97727.84
2023-08-16T05:43:34.378Z,97729.47
2023-08-16T05:46:01.736Z,97726.72
2023-08-16T05:48:29.436Z,97722.03
2023-08-16T05:50:56.781Z,97730.63
2023-08-16T05:53:24.071Z,97725.78
2023-08-16T05:55:51.522Z,97729.75
2023-08-16T05:58:18.923Z,97735.28
2023-08-16T06:00:47.435Z,97735.81
2023-08-16T06:03:15.770Z,97737.25
2023-08-16T06:05:43.139Z,97726.28
2023-08-16T06:08:10.431Z,97727.19
2023-08-16T06:10:37.639Z,97729.38
2023-08-16T06:13:05.002Z,97731.91
2023-08-16T06:15:32.391Z,97725.81
2023-08-16T06:17:59.724Z,97733.47
2023-08-16T06:20:27.086Z,97735.41
2023-08-16T06:22:54.944Z,97736.38
2023-08-16T06:25:22.222Z,97741.69
2023-08-16T06:27:50.074Z,97737.41
2023-08-16T06:30:17.372Z,97743.31
2023-08-16T06:32:46.386Z,97737.00
2023-08-16T06:35:14.151Z,97749.25
2023-08-16T06:37:42.444Z,97736.94
2023-08-16T06:40:10.862Z,97739.72
2023-08-16T06:42:38.331Z,97740.63
2023-08-16T06:45:06.239Z,97739.53
2023-08-16T06:47:33.623Z,97734.78
2023-08-16T06:50:01.064Z,97736.94
2023-08-16T06:52:28.450Z,97729.81
2023-08-16T06:54:55.678Z,97730.78
2023-08-16T06:57:23.178Z,97720.88
2023-08-16T06:59:51.524Z,97718.50
2023-08-16T07:02:19.848Z,97719.66
2023-08-16T07:04:47.355Z,97721.91
2023-08-16T07:07:15.089Z,97730.19
2023-08-16T07:09:42.587Z,97731.31
2023-08-16T07:12:10.101Z,97734.50
2023-08-16T07:14:37.479Z,97731.94
2023-08-16T07:17:06.416Z,97737.56
2023-08-16T07:19:33.847Z,97742.38
2023-08-16T07:22:01.223Z,97738.81
2023-08-16T07:24:28.553Z,97741.91
2023-08-16T07:26:55.986Z,97749.97
2023-08-16T07:29:23.582Z,97755.47
2023-08-16T07:31:52.371Z,97752.28
2023-08-16T07:34:19.633Z,97746.31
2023-08-16T07:36:46.968Z,97744.59
2023-08-16T07:39:14.283Z,97746.25
2023-08-16T07:41:41.763Z,97757.97
2023-08-16T07:44:10.297Z,97749.03
2023-08-16T07:46:37.691Z,97748.22
2023-08-16T07:49:05.620Z,97754.66
2023-08-16T07:51:32.867Z,97761.25
2023-08-16T07:54:00.132Z,97758.47
2023-08-16T07:56:27.433Z,97753.91
2023-08-16T07:58:54.691Z,97748.50
2023-08-16T08:01:22.051Z,97751.09
2023-08-16T08:03:49.334Z,97752.63
2023-08-16T08:06:16.818Z,97753.53
2023-08-16T08:08:44.030Z,97749.75
2023-08-16T08:11:11.420Z,97755.09
2023-08-16T08:13:39.269Z,97760.97
2023-08-16T08:16:07.753Z,97759.41
2023-08-16T08:18:35.421Z,97766.72
2023-08-16T08:21:02.642Z,97762.84
2023-08-16T08:23:30.073Z,97761.13
2023-08-16T08:25:57.378Z,97770.16
2023-08-16T08:28:24.888Z,97770.38
2023-08-16T08:30:52.127Z,97765.22
2023-08-16T08:33:19.468Z,97761.38
2023-08-16T08:35:48.132Z,97761.38
2023-08-16T08:38:15.697Z,97762.09
2023-08-16T08:40:43.115Z,97754.72
2023-08-16T08:43:11.953Z,97764.69
2023-08-16T08:45:40.862Z,97765.22
2023-08-16T08:48:08.825Z,97766.72
2023-08-16T08:50:39.438Z,97750.38
2023-08-16T08:53:06.953Z,97756.41
2023-08-16T08:55:34.696Z,97759.91
2023-08-16T08:58:03.510Z,97755.72
2023-08-16T09:00:38.857Z,97758.34
2023-08-16T09:03:09.326Z,97750.88
2023-08-16T09:05:40.589Z,97753.28
2023-08-16T09:08:10.985Z,97753.50
2023-08-16T09:10:39.073Z,97758.47
2023-08-16T09:13:07.953Z,97751.00
2023-08-16T09:15:35.501Z,97743.50
2023-08-16T09:18:12.614Z,97748.91
2023-08-16T09:20:41.032Z,97741.59
2023-08-16T09:23:08.710Z,97735.28
2023-08-16T09:25:36.162Z,97726.34
2023-08-16T09:28:03.719Z,97717.47
2023-08-16T09:30:31.174Z,97722.19
2023-08-16T09:32:58.702Z,97721.25
2023-08-16T09:35:32.221Z,97720.81
2023-08-16T09:38:01.431Z,97714.78
2023-08-16T09:40:29.037Z,97725.31
2023-08-16T09:43:03.421Z,97714.19
2023-08-16T09:45:35.494Z,97720.66
2023-08-16T09:48:04.309Z,97732.25
2023-08-16T09:50:51.855Z,97730.38
2023-08-16T09:53:35.445Z,97727.97
2023-08-16T09:56:04.111Z,97727.69
2023-08-16T09:58:33.460Z,97712.59
2023-08-16T10:06:38.008Z,97725.25
2023-08-16T10:09:10.494Z,97725.94
2023-08-16T10:11:39.320Z,97724.97
2023-08-16T10:14:08.230Z,97723.56
2023-08-16T10:16:37.462Z,97720.16
2023-08-16T10:19:05.747Z,97726.59
2023-08-16T10:21:39.248Z,97728.69
2023-08-16T10:24:10.633Z,97733.38
2023-08-16T10:26:39.525Z,97729.09
2023-08-16T10:31:48.261Z,97715.25
2023-08-16T10:34:16.596Z,97712.06
2023-08-16T10:36:44.212Z,97717.22
2023-08-16T10:39:25.445Z,97718.91
2023-08-16T10:42:07.366Z,97709.59
2023-08-16T10:44:34.911Z,97718.78
2023-08-16T10:47:02.379Z,97711.19
2023-08-16T10:49:41.247Z,97699.19
2023-08-16T10:52:08.488Z,97710.03
2023-08-16T10:54:36.590Z,97697.84
2023-08-16T10:57:09.169Z,97702.16
2023-08-16T10:59:40.564Z,97693.16
2023-08-16T11:02:17.503Z,97696.47
2023-08-16T11:04:47.005Z,97690.16
2023-08-16T11:07:16.454Z,97692.03
2023-08-16T11:09:44.344Z,97693.22
2023-08-16T11:12:11.687Z,97694.38
2023-08-16T11:14:38.956Z,97704.06
2023-08-16T11:17:06.562Z,97699.25
2023-08-16T11:19:35.324Z,97695.03
2023-08-16T11:22:03.778Z,97688.16
2023-08-16T11:24:32.605Z,97695.78
2023-08-16T11:26:59.821Z,97701.53
2023-08-16T11:29:27.163Z,97697.34
2023-08-16T11:31:58.641Z,97695.44
2023-08-16T11:34:26.130Z,97698.69
2023-08-16T11:36:53.471Z,97694.06
2023-08-16T11:39:23.809Z,97682.69
2023-08-16T11:41:51.152Z,97687.25
2023-08-16T11:44:18.467Z,97678.38
2023-08-16T11:46:50.700Z,97679.34
2023-08-16T11:49:23.247Z,97671.16
2023-08-16T11:51:52.025Z,97672.09
2023-08-16T11:54:23.185Z,97665.50
2023-08-16T11:56:53.870Z,97663.56
2023-08-16T11:59:32.784Z,97655.59
2023-08-16T12:02:08.256Z,97662.44
2023-08-16T12:04:35.868Z,97664.94
2023-08-16T12:07:10.157Z,97650.72
2023-08-16T12:09:44.028Z,97654.47
2023-08-16T12:12:12.022Z,97656.91
2023-08-16T12:14:39.394Z,97651.47
2023-08-16T12:17:06.884Z,97652.13
2023-08-16T12:19:34.130Z,97646.97
2023-08-16T12:22:01.487Z,97654.44
2023-08-16T12:24:28.900Z,97653.13
2023-08-16T12:26:56.265Z,97657.13
2023-08-16T12:29:23.618Z,97650.63
2023-08-16T12:31:51.034Z,97653.53
2023-08-16T12:34:18.210Z,97651.50
2023-08-16T12:36:45.600Z,97648.25
2023-08-16T12:39:12.825Z,97651.38
2023-08-16T12:41:40.235Z,97655.03
2023-08-16T12:44:07.718Z,97655.31
2023-08-16T12:46:35.070Z,97657.16
2023-08-16T12:49:02.473Z,97656.50
2023-08-16T12:51:29.795Z,97656.19
2023-08-16T12:53:57.052Z,97648.81
2023-08-16T12:56:24.422Z,97646.13
2023-08-16T13:01:21.812Z,97642.84
2023-08-16T13:08:50.437Z,97635.22
2023-08-16T13:13:49.362Z,97630.84
2023-08-16T13:16:30.357Z,97622.41
2023-08-16T13:24:37.310Z,97616.50
2023-08-16T13:27:03.189Z,97612.69
2023-08-16T13:29:42.286Z,97616.09
2023-08-16T13:40:02.013Z,97614.13
2023-08-16T13:47:31.249Z,97613.78
2023-08-16T13:49:58.734Z,97617.16
2023-08-16T13:52:26.617Z,97612.66
2023-08-16T13:54:54.196Z,97615.44
2023-08-16T13:57:22.306Z,97608.19
2023-08-16T13:59:49.794Z,97617.50
2023-08-16T14:02:17.284Z,97613.88
2023-08-16T14:04:44.498Z,97618.31
2023-08-16T14:07:11.854Z,97613.88
2023-08-16T14:09:39.148Z,97614.13
2023-08-16T14:12:07.133Z,97616.41
2023-08-16T14:14:34.349Z,97623.31
2023-08-16T14:17:01.687Z,97610.28
2023-08-16T14:19:29.206Z,97619.22
2023-08-16T14:21:58.309Z,97611.78
2023-08-16T14:24:26.815Z,97605.38
2023-08-16T14:26:54.267Z,97603.88
2023-08-16T14:29:21.646Z,97603.06
2023-08-16T14:31:48.976Z,97604.63
2023-08-16T14:34:16.382Z,97603.06
2023-08-16T14:36:44.545Z,97602.28
2023-08-16T14:39:12.162Z,97603.75
2023-08-16T14:41:39.492Z,97603.25
2023-08-16T14:44:07.069Z,97597.50
2023-08-16T14:46:34.472Z,97591.94
2023-08-16T14:49:01.879Z,97591.75
2023-08-16T14:51:31.021Z,97594.38
2023-08-16T14:53:58.612Z,97590.44
2023-08-16T14:56:26.010Z,97587.41
2023-08-16T14:58:53.299Z,97591.53
2023-08-16T15:01:20.689Z,97587.31
2023-08-16T15:03:48.122Z,97582.56
2023-08-16T15:06:15.483Z,97580.53
2023-08-16T15:08:42.812Z,97578.69
2023-08-16T15:11:20.698Z,97582.59
2023-08-16T15:13:48.103Z,97579.78
2023-08-16T15:16:15.688Z,97579.72
2023-08-16T15:18:43.080Z,97578.53
2023-08-16T15:21:10.408Z,97571.72
2023-08-16T15:23:38.597Z,97569.25
2023-08-16T15:26:07.841Z,97576.50
2023-08-16T15:28:37.445Z,97572.34
2023-08-16T15:31:06.280Z,97576.53
2023-08-16T15:33:35.505Z,97582.41
2023-08-16T15:36:02.776Z,97572.22
2023-08-16T15:38:46.251Z,97574.16
2023-08-16T15:41:14.488Z,97570.56
2023-08-16T15:43:44.393Z,97571.31
2023-08-16T15:46:14.582Z,97565.56
2023-08-16T15:48:42.001Z,97562.75
2023-08-16T15:51:09.340Z,97560.22
2023-08-16T15:53:36.659Z,97558.81
2023-08-16T15:56:04.925Z,97558.38
2023-08-16T15:58:32.760Z,97555.63
2023-08-16T16:01:04.776Z,97555.09
2023-08-16T16:03:32.736Z,97555.16
2023-08-16T16:06:00.310Z,97549.16
2023-08-16T16:08:30.348Z,97548.13
2023-08-16T16:10:58.895Z,97543.94
2023-08-16T16:13:26.195Z,97548.94
2023-08-16T16:15:54.229Z,97543.63
2023-08-16T16:18:23.052Z,97542.78
2023-08-16T16:20:50.454Z,97537.31
2023-08-16T16:23:17.773Z,97540.69
2023-08-16T16:25:45.147Z,97538.69
2023-08-16T16:28:12.553Z,97538.06
2023-08-16T16:30:39.914Z,97536.63
2023-08-16T16:33:07.301Z,97534.69
2023-08-16T16:35:38.137Z,97538.72
2023-08-16T16:38:08.072Z,97542.56
2023-08-16T16:40:35.518Z,97536.31
2023-08-16T16:43:02.974Z,97541.78
2023-08-16T16:45:30.334Z,97534.78
2023-08-16T16:47:57.701Z,97532.53
2023-08-16T16:50:25.104Z,97534.88
2023-08-16T16:52:52.427Z,97537.72
2023-08-16T16:55:19.693Z,97535.00
2023-08-16T16:57:47.052Z,97540.09
2023-08-16T17:00:14.903Z,97539.00
2023-08-16T17:02:42.262Z,97543.69
2023-08-16T17:05:10.006Z,97551.53
2023-08-16T17:07:37.430Z,97548.78
2023-08-16T17:10:05.817Z,97547.28
2023-08-16T17:12:33.082Z,97554.66
2023-08-16T17:15:02.029Z,97555.09
2023-08-16T17:17:29.598Z,97557.00
2023-08-16T17:19:57.231Z,97561.72
2023-08-16T17:22:24.838Z,97557.84
2023-08-16T17:24:52.482Z,97556.28
2023-08-16T17:27:19.868Z,97552.84
2023-08-16T17:29:47.151Z,97557.03
2023-08-16T17:32:14.614Z,97548.53
2023-08-16T17:34:41.820Z,97545.84
2023-08-16T17:37:09.236Z,97546.63
2023-08-16T17:39:36.561Z,97554.78
2023-08-16T17:42:04.528Z,97550.13
2023-08-16T17:44:31.845Z,97550.09
2023-08-16T17:46:59.993Z,97552.03
2023-08-16T17:49:27.507Z,97555.91
2023-08-16T17:51:54.892Z,97560.91
2023-08-16T17:54:22.261Z,97558.88
2023-08-16T17:56:49.581Z,97560.41
2023-08-16T17:59:16.856Z,97570.78
2023-08-16T18:01:44.131Z,97571.09
2023-08-16T18:04:11.385Z,97578.47
2023-08-16T18:06:38.688Z,97570.69
2023-08-16T18:09:06.425Z,97574.97
2023-08-16T18:11:34.316Z,97580.78
2023-08-16T18:14:02.110Z,97589.28
2023-08-16T18:16:29.439Z,97588.06
2023-08-16T18:18:56.662Z,97591.91
2023-08-16T18:21:24.962Z,97594.94
2023-08-16T18:23:52.389Z,97591.78
2023-08-16T18:26:19.700Z,97591.78
2023-08-16T18:28:47.183Z,97596.03
2023-08-16T18:31:15.716Z,97603.72
2023-08-16T18:33:44.054Z,97606.31
2023-08-16T18:36:12.003Z,97619.72
2023-08-16T18:38:39.279Z,97618.47
2023-08-16T18:41:07.728Z,97623.50
2023-08-16T18:43:35.931Z,97621.47
2023-08-16T18:46:03.297Z,97629.22
2023-08-16T18:48:30.554Z,97624.94
2023-08-16T18:50:59.273Z,97628.88
2023-08-16T18:53:26.675Z,97633.56
2023-08-16T18:55:54.728Z,97635.84
2023-08-16T18:58:22.321Z,97629.91
2023-08-16T19:00:55.806Z,97631.34
2023-08-16T19:03:23.410Z,97638.03
2023-08-16T19:05:50.825Z,97637.25
2023-08-16T19:08:20.314Z,97637.69
2023-08-16T19:10:49.762Z,97636.56
2023-08-16T19:13:17.250Z,97636.22
2023-08-16T19:15:44.544Z,97636.88
2023-08-16T19:18:13.573Z,97640.31
2023-08-16T19:20:41.029Z,97632.34
2023-08-16T19:23:08.519Z,97638.91
2023-08-16T19:25:35.836Z,97632.69
2023-08-16T19:28:03.398Z,97630.41
2023-08-16T19:30:30.721Z,97621.81
2023-08-16T19:32:58.473Z,97626.06
2023-08-16T19:35:28.079Z,97624.41
2023-08-16T19:37:55.409Z,97629.06
2023-08-16T19:40:23.716Z,97629.41
2023-08-16T19:42:51.164Z,97632.31
2023-08-16T19:45:18.524Z,97642.53
2023-08-16T19:47:45.886Z,97636.59
2023-08-16T19:50:20.896Z,97633.66
2023-08-16T19:52:54.029Z,97632.34
2023-08-16T19:55:22.282Z,97637.31
2023-08-16T19:57:51.567Z,97634.53
2023-08-16T20:00:21.628Z,97627.56
2023-08-16T20:02:50.837Z,97625.50
2023-08-16T20:05:18.321Z,97624.81
2023-08-16T20:07:46.199Z,97632.31
2023-08-16T20:10:14.185Z,97636.81
2023-08-16T20:12:42.247Z,97634.13
2023-08-16T20:15:11.458Z,97626.72
2023-08-16T20:17:39.067Z,97629.69
2023-08-16T20:20:11.092Z,97631.63
2023-08-16T20:22:38.438Z,97635.34
2023-08-16T20:25:07.221Z,97646.50
2023-08-16T20:27:34.763Z,97653.75
2023-08-16T20:30:01.948Z,97651.13
2023-08-16T20:32:29.373Z,97653.75
2023-08-16T20:34:59.267Z,97649.47
2023-08-16T20:37:28.582Z,97646.91
2023-08-16T20:39:56.717Z,97650.81
2023-08-16T20:42:36.379Z,97643.84
2023-08-16T20:45:08.602Z,97651.41
2023-08-16T20:47:37.334Z,97655.31
2023-08-16T20:50:05.869Z,97648.22
2023-08-16T20:52:33.809Z,97654.81
2023-08-16T20:55:03.292Z,97654.47
2023-08-16T20:57:30.623Z,97655.59
2023-08-16T20:59:58.274Z,97653.13
2023-08-16T21:02:25.932Z,97663.22
2023-08-16T21:04:53.226Z,97665.47
2023-08-16T21:07:20.523Z,97662.22
2023-08-16T21:09:48.288Z,97662.16
2023-08-16T21:12:15.589Z,97667.81
2023-08-16T21:14:46.441Z,97667.41
2023-08-16T21:17:14.737Z,97667.19
2023-08-16T21:19:42.028Z,97685.91
2023-08-16T21:22:09.445Z,97678.94
2023-08-16T21:24:36.809Z,97685.63
2023-08-16T21:27:04.831Z,97685.72
2023-08-16T21:29:34.330Z,97684.22
2023-08-16T21:32:02.112Z,97681.78
2023-08-16T21:34:29.498Z,97686.63
2023-08-16T21:36:57.280Z,97686.91
2023-08-16T21:39:24.602Z,97683.47
2023-08-16T21:41:51.925Z,97676.47
2023-08-16T21:44:20.113Z,97681.44
2023-08-16T21:46:47.573Z,97689.91
2023-08-16T21:49:15.778Z,97695.78
2023-08-16T21:51:43.750Z,97691.81
2023-08-16T21:54:11.275Z,97697.91
2023-08-16T21:56:38.542Z,97690.66
2023-08-16T21:59:05.846Z,97700.31
2023-08-16T22:01:33.100Z,97696.41
2023-08-16T22:04:00.520Z,97693.69
2023-08-16T22:06:27.834Z,97702.00
2023-08-16T22:08:55.110Z,97699.25
2023-08-16T22:11:22.753Z,97698.09
2023-08-16T22:13:50.001Z,97693.13
2023-08-16T22:16:17.369Z,97694.78
2023-08-16T22:18:44.819Z,97697.03
2023-08-16T22:21:12.107Z,97692.69
2023-08-16T22:23:39.337Z,97697.91
2023-08-16T22:26:07.775Z,97692.09
2023-08-16T22:28:35.513Z,97688.88
2023-08-16T22:31:02.817Z,97684.81
2023-08-16T22:33:30.165Z,97677.66
2023-08-16T22:35:57.485Z,97679.41
2023-08-16T22:38:25.078Z,97685.84
2023-08-16T22:40:52.361Z,97687.84
2023-08-16T22:43:19.556Z,97677.06
2023-08-16T22:45:46.791Z,97675.31
2023-08-16T22:48:15.296Z,97673.94
2023-08-16T22:50:42.588Z,97672.34
2023-08-16T22:53:09.798Z,97675.66
2023-08-16T22:55:37.162Z,97665.19
2023-08-16T22:58:04.565Z,97672.16
2023-08-16T23:00:32.462Z,97667.78
2023-08-16T23:02:59.826Z,97671.53
2023-08-16T23:05:27.028Z,97668.84
2023-08-16T23:07:54.236Z,97669.72
2023-08-16T23:10:21.467Z,97660.16
2023-08-16T23:12:48.762Z,97664.38
2023-08-16T23:15:16.688Z,97668.66
2023-08-16T23:17:44.040Z,97664.22
2023-08-16T23:20:12.332Z,97676.78
2023-08-16T23:22:41.424Z,97674.19
2023-08-16T23:25:10.182Z,97676.69
2023-08-16T23:27:38.478Z,97679.09
2023-08-16T23:30:07.661Z,97689.31
2023-08-16T23:32:35.150Z,97684.59
2023-08-16T23:35:03.976Z,97688.97
2023-08-16T23:37:32.399Z,97696.19
2023-08-16T23:42:27.943Z,97703.66
2023-08-16T23:44:55.250Z,97695.91
2023-08-16T23:47:22.578Z,97694.47
2023-08-16T23:49:49.968Z,97701.88
2023-08-16T23:54:44.439Z,97698.97
2023-08-16T23:57:11.687Z,97698.53
2023-08-16T23:59:41.243Z,97700.44
